sensor_id;sensor_type;location;lat;lon;timestamp;P1;durP1;ratioP1;P2;durP2;ratioP2
6997;SDS011;3539;47.982;12.238;2024-01-27T00:01:50;3.10;;;1.50;;
6997;SDS011;3539;47.982;12.238;2024-01-27T00:04:17;3.23;;;1.83;;
6997;SDS011;3539;47.982;12.238;2024-01-27T00:06:45;5.33;;;1.90;;
6997;SDS011;3539;47.982;12.238;2024-01-27T00:09:12;3.70;;;1.70;;
6997;SDS011;3539;47.982;12.238;2024-01-27T00:11:39;3.73;;;1.87;;
6997;SDS011;3539;47.982;12.238;2024-01-27T00:14:06;2.67;;;1.40;;
6997;SDS011;3539;47.982;12.238;2024-01-27T00:16:33;8.45;;;4.10;;
6997;SDS011;3539;47.982;12.238;2024-01-27T00:19:00;4.50;;;2.50;;
6997;SDS011;3539;47.982;12.238;2024-01-27T00:21:27;5.13;;;2.03;;
6997;SDS011;3539;47.982;12.238;2024-01-27T00:23:55;5.50;;;1.90;;
6997;SDS011;3539;47.982;12.238;2024-01-27T00:26:28;3.37;;;1.83;;
6997;SDS011;3539;47.982;12.238;2024-01-27T00:28:55;3.73;;;1.93;;
6997;SDS011;3539;47.982;12.238;2024-01-27T00:31:22;3.00;;;1.40;;
6997;SDS011;3539;47.982;12.238;2024-01-27T00:33:48;2.97;;;1.83;;
6997;SDS011;3539;47.982;12.238;2024-01-27T00:36:15;1.50;;;1.27;;
6997;SDS011;3539;47.982;12.238;2024-01-27T00:38:43;3.60;;;1.67;;
6997;SDS011;3539;47.982;12.238;2024-01-27T00:41:16;2.80;;;1.70;;
6997;SDS011;3539;47.982;12.238;2024-01-27T00:43:43;3.17;;;1.70;;
6997;SDS011;3539;47.982;12.238;2024-01-27T00:46:10;3.83;;;1.90;;
6997;SDS011;3539;47.982;12.238;2024-01-27T00:48:37;3.13;;;2.03;;
6997;SDS011;3539;47.982;12.238;2024-01-27T00:51:04;1.97;;;1.63;;
6997;SDS011;3539;47.982;12.238;2024-01-27T00:53:31;4.20;;;1.40;;
6997;SDS011;3539;47.982;12.238;2024-01-27T00:55:58;2.23;;;1.73;;
6997;SDS011;3539;47.982;12.238;2024-01-27T00:58:26;4.87;;;1.87;;
6997;SDS011;3539;47.982;12.238;2024-01-27T01:00:53;5.37;;;1.93;;
6997;SDS011;3539;47.982;12.238;2024-01-27T01:03:20;5.03;;;1.80;;
6997;SDS011;3539;47.982;12.238;2024-01-27T01:05:47;2.93;;;1.80;;
6997;SDS011;3539;47.982;12.238;2024-01-27T01:08:14;3.57;;;1.70;;
6997;SDS011;3539;47.982;12.238;2024-01-27T01:10:41;4.33;;;1.90;;
6997;SDS011;3539;47.982;12.238;2024-01-27T01:13:08;3.07;;;1.90;;
6997;SDS011;3539;47.982;12.238;2024-01-27T01:15:36;6.27;;;1.63;;
6997;SDS011;3539;47.982;12.238;2024-01-27T01:18:04;4.13;;;1.50;;
6997;SDS011;3539;47.982;12.238;2024-01-27T01:20:31;5.67;;;1.90;;
6997;SDS011;3539;47.982;12.238;2024-01-27T01:22:58;5.60;;;1.50;;
6997;SDS011;3539;47.982;12.238;2024-01-27T01:25:25;3.63;;;1.90;;
6997;SDS011;3539;47.982;12.238;2024-01-27T01:27:52;5.47;;;1.60;;
6997;SDS011;3539;47.982;12.238;2024-01-27T01:30:19;4.73;;;2.07;;
6997;SDS011;3539;47.982;12.238;2024-01-27T01:32:47;3.30;;;1.70;;
6997;SDS011;3539;47.982;12.238;2024-01-27T01:35:15;3.80;;;1.83;;
6997;SDS011;3539;47.982;12.238;2024-01-27T01:37:42;3.67;;;1.37;;
6997;SDS011;3539;47.982;12.238;2024-01-27T01:40:09;2.47;;;1.50;;
6997;SDS011;3539;47.982;12.238;2024-01-27T01:42:37;3.07;;;1.67;;
6997;SDS011;3539;47.982;12.238;2024-01-27T01:45:04;2.37;;;1.40;;
6997;SDS011;3539;47.982;12.238;2024-01-27T01:47:31;2.77;;;1.30;;
6997;SDS011;3539;47.982;12.238;2024-01-27T01:50:00;1.80;;;1.27;;
6997;SDS011;3539;47.982;12.238;2024-01-27T01:52:27;3.97;;;1.90;;
6997;SDS011;3539;47.982;12.238;2024-01-27T01:54:54;3.77;;;1.83;;
6997;SDS011;3539;47.982;12.238;2024-01-27T01:57:21;4.15;;;2.03;;
6997;SDS011;3539;47.982;12.238;2024-01-27T01:59:48;4.03;;;1.97;;
6997;SDS011;3539;47.982;12.238;2024-01-27T02:02:17;3.53;;;2.03;;
6997;SDS011;3539;47.982;12.238;2024-01-27T02:04:44;3.63;;;1.60;;
6997;SDS011;3539;47.982;12.238;2024-01-27T02:07:13;3.50;;;1.70;;
6997;SDS011;3539;47.982;12.238;2024-01-27T02:09:40;2.90;;;1.73;;
6997;SDS011;3539;47.982;12.238;2024-01-27T02:12:07;4.67;;;2.17;;
6997;SDS011;3539;47.982;12.238;2024-01-27T02:14:34;5.43;;;1.80;;
6997;SDS011;3539;47.982;12.238;2024-01-27T02:17:01;4.07;;;1.97;;
6997;SDS011;3539;47.982;12.238;2024-01-27T02:19:29;4.80;;;1.87;;
6997;SDS011;3539;47.982;12.238;2024-01-27T02:21:56;2.93;;;1.40;;
6997;SDS011;3539;47.982;12.238;2024-01-27T02:24:24;3.60;;;1.87;;
6997;SDS011;3539;47.982;12.238;2024-01-27T02:26:52;3.57;;;1.70;;
6997;SDS011;3539;47.982;12.238;2024-01-27T02:29:19;4.80;;;2.03;;
6997;SDS011;3539;47.982;12.238;2024-01-27T02:31:46;2.87;;;1.43;;
6997;SDS011;3539;47.982;12.238;2024-01-27T02:34:13;2.20;;;1.57;;
6997;SDS011;3539;47.982;12.238;2024-01-27T02:36:40;2.77;;;1.60;;
6997;SDS011;3539;47.982;12.238;2024-01-27T02:39:08;4.53;;;2.00;;
6997;SDS011;3539;47.982;12.238;2024-01-27T02:41:36;3.57;;;1.90;;
6997;SDS011;3539;47.982;12.238;2024-01-27T02:44:04;3.10;;;1.87;;
6997;SDS011;3539;47.982;12.238;2024-01-27T02:46:31;4.90;;;1.70;;
6997;SDS011;3539;47.982;12.238;2024-01-27T02:48:58;3.77;;;1.47;;
6997;SDS011;3539;47.982;12.238;2024-01-27T02:51:25;2.73;;;1.70;;
6997;SDS011;3539;47.982;12.238;2024-01-27T02:53:52;4.27;;;1.80;;
6997;SDS011;3539;47.982;12.238;2024-01-27T02:56:18;2.47;;;1.60;;
6997;SDS011;3539;47.982;12.238;2024-01-27T02:58:47;5.00;;;2.10;;
6997;SDS011;3539;47.982;12.238;2024-01-27T03:01:14;5.90;;;1.50;;
6997;SDS011;3539;47.982;12.238;2024-01-27T03:03:41;3.40;;;2.00;;
6997;SDS011;3539;47.982;12.238;2024-01-27T03:06:07;3.17;;;2.00;;
6997;SDS011;3539;47.982;12.238;2024-01-27T03:08:34;3.27;;;2.00;;
6997;SDS011;3539;47.982;12.238;2024-01-27T03:11:01;2.80;;;1.90;;
6997;SDS011;3539;47.982;12.238;2024-01-27T03:13:28;4.80;;;2.20;;
6997;SDS011;3539;47.982;12.238;2024-01-27T03:15:56;6.53;;;1.97;;
6997;SDS011;3539;47.982;12.238;2024-01-27T03:18:23;6.37;;;2.23;;
6997;SDS011;3539;47.982;12.238;2024-01-27T03:20:50;4.20;;;2.10;;
6997;SDS011;3539;47.982;12.238;2024-01-27T03:23:17;5.40;;;2.10;;
6997;SDS011;3539;47.982;12.238;2024-01-27T03:25:44;5.60;;;2.20;;
6997;SDS011;3539;47.982;12.238;2024-01-27T03:28:10;4.20;;;2.27;;
6997;SDS011;3539;47.982;12.238;2024-01-27T03:30:37;5.77;;;2.27;;
6997;SDS011;3539;47.982;12.238;2024-01-27T03:33:05;5.27;;;2.60;;
6997;SDS011;3539;47.982;12.238;2024-01-27T03:35:35;3.80;;;2.10;;
6997;SDS011;3539;47.982;12.238;2024-01-27T03:38:03;3.77;;;2.20;;
6997;SDS011;3539;47.982;12.238;2024-01-27T03:40:30;6.97;;;1.80;;
6997;SDS011;3539;47.982;12.238;2024-01-27T03:42:57;8.90;;;2.00;;
6997;SDS011;3539;47.982;12.238;2024-01-27T03:45:23;2.60;;;2.33;;
6997;SDS011;3539;47.982;12.238;2024-01-27T03:47:50;6.57;;;2.20;;
6997;SDS011;3539;47.982;12.238;2024-01-27T03:50:18;4.40;;;1.60;;
6997;SDS011;3539;47.982;12.238;2024-01-27T03:52:45;3.10;;;1.60;;
6997;SDS011;3539;47.982;12.238;2024-01-27T03:55:12;4.90;;;2.17;;
6997;SDS011;3539;47.982;12.238;2024-01-27T03:57:39;5.83;;;2.40;;
6997;SDS011;3539;47.982;12.238;2024-01-27T04:00:06;7.60;;;2.80;;
6997;SDS011;3539;47.982;12.238;2024-01-27T04:02:37;3.20;;;1.93;;
6997;SDS011;3539;47.982;12.238;2024-01-27T04:05:05;6.40;;;1.80;;
6997;SDS011;3539;47.982;12.238;2024-01-27T04:07:34;5.07;;;1.70;;
6997;SDS011;3539;47.982;12.238;2024-01-27T04:10:02;3.53;;;1.90;;
6997;SDS011;3539;47.982;12.238;2024-01-27T04:12:29;3.27;;;1.70;;
6997;SDS011;3539;47.982;12.238;2024-01-27T04:14:56;6.23;;;1.60;;
6997;SDS011;3539;47.982;12.238;2024-01-27T04:17:24;3.87;;;2.10;;
6997;SDS011;3539;47.982;12.238;2024-01-27T04:19:51;3.97;;;1.70;;
6997;SDS011;3539;47.982;12.238;2024-01-27T04:22:18;4.57;;;2.40;;
6997;SDS011;3539;47.982;12.238;2024-01-27T04:24:47;4.23;;;1.70;;
6997;SDS011;3539;47.982;12.238;2024-01-27T04:27:13;5.13;;;1.63;;
6997;SDS011;3539;47.982;12.238;2024-01-27T04:29:40;5.17;;;2.20;;
6997;SDS011;3539;47.982;12.238;2024-01-27T04:32:07;4.30;;;1.80;;
6997;SDS011;3539;47.982;12.238;2024-01-27T04:34:34;4.83;;;2.20;;
6997;SDS011;3539;47.982;12.238;2024-01-27T04:37:01;5.13;;;2.30;;
6997;SDS011;3539;47.982;12.238;2024-01-27T04:39:27;2.90;;;1.63;;
6997;SDS011;3539;47.982;12.238;2024-01-27T04:41:56;6.00;;;1.87;;
6997;SDS011;3539;47.982;12.238;2024-01-27T04:44:23;5.47;;;1.77;;
6997;SDS011;3539;47.982;12.238;2024-01-27T04:46:49;3.80;;;1.50;;
6997;SDS011;3539;47.982;12.238;2024-01-27T04:49:16;4.80;;;1.80;;
6997;SDS011;3539;47.982;12.238;2024-01-27T04:51:43;4.10;;;2.20;;
6997;SDS011;3539;47.982;12.238;2024-01-27T04:54:10;5.20;;;1.60;;
6997;SDS011;3539;47.982;12.238;2024-01-27T04:56:37;7.00;;;1.50;;
6997;SDS011;3539;47.982;12.238;2024-01-27T04:59:05;3.20;;;1.77;;
6997;SDS011;3539;47.982;12.238;2024-01-27T05:01:31;4.97;;;2.10;;
6997;SDS011;3539;47.982;12.238;2024-01-27T05:03:58;5.80;;;1.93;;
6997;SDS011;3539;47.982;12.238;2024-01-27T05:06:25;6.17;;;1.80;;
6997;SDS011;3539;47.982;12.238;2024-01-27T05:08:52;3.60;;;1.50;;
6997;SDS011;3539;47.982;12.238;2024-01-27T05:11:24;2.53;;;1.80;;
6997;SDS011;3539;47.982;12.238;2024-01-27T05:13:52;5.30;;;2.30;;
6997;SDS011;3539;47.982;12.238;2024-01-27T05:16:20;4.47;;;2.20;;
6997;SDS011;3539;47.982;12.238;2024-01-27T05:18:47;2.90;;;2.07;;
6997;SDS011;3539;47.982;12.238;2024-01-27T05:21:14;5.33;;;2.30;;
6997;SDS011;3539;47.982;12.238;2024-01-27T05:23:41;5.13;;;1.70;;
6997;SDS011;3539;47.982;12.238;2024-01-27T05:26:07;3.60;;;1.57;;
6997;SDS011;3539;47.982;12.238;2024-01-27T05:28:35;5.30;;;2.20;;
6997;SDS011;3539;47.982;12.238;2024-01-27T05:31:03;2.67;;;1.30;;
6997;SDS011;3539;47.982;12.238;2024-01-27T05:33:31;4.30;;;2.20;;
6997;SDS011;3539;47.982;12.238;2024-01-27T05:35:57;5.10;;;2.20;;
6997;SDS011;3539;47.982;12.238;2024-01-27T05:38:24;4.23;;;2.40;;
6997;SDS011;3539;47.982;12.238;2024-01-27T05:40:53;5.10;;;2.70;;
6997;SDS011;3539;47.982;12.238;2024-01-27T05:43:20;4.40;;;1.50;;
6997;SDS011;3539;47.982;12.238;2024-01-27T05:45:47;4.93;;;2.30;;
6997;SDS011;3539;47.982;12.238;2024-01-27T05:48:14;5.50;;;2.40;;
6997;SDS011;3539;47.982;12.238;2024-01-27T05:50:43;7.70;;;1.87;;
6997;SDS011;3539;47.982;12.238;2024-01-27T05:53:10;3.77;;;1.87;;
6997;SDS011;3539;47.982;12.238;2024-01-27T05:55:37;3.60;;;2.30;;
6997;SDS011;3539;47.982;12.238;2024-01-27T05:58:03;3.23;;;1.63;;
6997;SDS011;3539;47.982;12.238;2024-01-27T06:00:30;3.63;;;1.77;;
6997;SDS011;3539;47.982;12.238;2024-01-27T06:02:57;6.10;;;1.80;;
6997;SDS011;3539;47.982;12.238;2024-01-27T06:05:23;3.67;;;2.27;;
6997;SDS011;3539;47.982;12.238;2024-01-27T06:07:51;5.20;;;2.50;;
6997;SDS011;3539;47.982;12.238;2024-01-27T06:10:18;5.57;;;2.60;;
6997;SDS011;3539;47.982;12.238;2024-01-27T06:12:45;3.67;;;1.70;;
6997;SDS011;3539;47.982;12.238;2024-01-27T06:15:12;7.53;;;2.77;;
6997;SDS011;3539;47.982;12.238;2024-01-27T06:17:40;3.70;;;1.90;;
6997;SDS011;3539;47.982;12.238;2024-01-27T06:20:07;5.83;;;2.63;;
6997;SDS011;3539;47.982;12.238;2024-01-27T06:22:34;30.53;;;17.73;;
6997;SDS011;3539;47.982;12.238;2024-01-27T06:25:03;20.50;;;13.80;;
6997;SDS011;3539;47.982;12.238;2024-01-27T06:27:30;44.03;;;18.87;;
6997;SDS011;3539;47.982;12.238;2024-01-27T06:29:58;21.67;;;12.20;;
6997;SDS011;3539;47.982;12.238;2024-01-27T06:32:24;16.93;;;9.00;;
6997;SDS011;3539;47.982;12.238;2024-01-27T06:34:51;14.03;;;7.00;;
6997;SDS011;3539;47.982;12.238;2024-01-27T06:37:18;6.60;;;3.30;;
6997;SDS011;3539;47.982;12.238;2024-01-27T06:39:45;7.47;;;3.43;;
6997;SDS011;3539;47.982;12.238;2024-01-27T06:42:13;5.00;;;2.60;;
6997;SDS011;3539;47.982;12.238;2024-01-27T06:44:40;5.83;;;2.83;;
6997;SDS011;3539;47.982;12.238;2024-01-27T06:47:07;5.55;;;2.90;;
6997;SDS011;3539;47.982;12.238;2024-01-27T06:49:33;5.07;;;3.00;;
6997;SDS011;3539;47.982;12.238;2024-01-27T06:52:00;4.70;;;2.50;;
6997;SDS011;3539;47.982;12.238;2024-01-27T06:54:27;6.23;;;3.73;;
6997;SDS011;3539;47.982;12.238;2024-01-27T06:56:53;2.87;;;2.40;;
6997;SDS011;3539;47.982;12.238;2024-01-27T06:59:21;3.23;;;2.13;;
6997;SDS011;3539;47.982;12.238;2024-01-27T07:01:48;7.33;;;2.63;;
6997;SDS011;3539;47.982;12.238;2024-01-27T07:04:15;9.87;;;4.33;;
6997;SDS011;3539;47.982;12.238;2024-01-27T07:06:42;6.53;;;3.10;;
6997;SDS011;3539;47.982;12.238;2024-01-27T07:09:09;13.87;;;7.30;;
6997;SDS011;3539;47.982;12.238;2024-01-27T07:11:36;9.93;;;5.27;;
6997;SDS011;3539;47.982;12.238;2024-01-27T07:14:03;9.03;;;3.40;;
6997;SDS011;3539;47.982;12.238;2024-01-27T07:16:31;8.47;;;2.93;;
6997;SDS011;3539;47.982;12.238;2024-01-27T07:19:00;6.60;;;2.30;;
6997;SDS011;3539;47.982;12.238;2024-01-27T07:21:40;6.87;;;2.93;;
6997;SDS011;3539;47.982;12.238;2024-01-27T07:24:07;9.97;;;4.70;;
6997;SDS011;3539;47.982;12.238;2024-01-27T07:26:35;3.97;;;3.03;;
6997;SDS011;3539;47.982;12.238;2024-01-27T07:29:01;7.73;;;2.77;;
6997;SDS011;3539;47.982;12.238;2024-01-27T07:31:28;5.97;;;2.90;;
6997;SDS011;3539;47.982;12.238;2024-01-27T07:33:56;3.57;;;2.00;;
6997;SDS011;3539;47.982;12.238;2024-01-27T07:36:23;5.30;;;3.30;;
6997;SDS011;3539;47.982;12.238;2024-01-27T07:38:52;6.50;;;2.93;;
6997;SDS011;3539;47.982;12.238;2024-01-27T07:41:18;3.30;;;2.30;;
6997;SDS011;3539;47.982;12.238;2024-01-27T07:43:45;8.87;;;4.50;;
6997;SDS011;3539;47.982;12.238;2024-01-27T07:46:12;5.57;;;2.70;;
6997;SDS011;3539;47.982;12.238;2024-01-27T07:48:38;3.33;;;2.70;;
6997;SDS011;3539;47.982;12.238;2024-01-27T07:51:12;3.87;;;2.23;;
6997;SDS011;3539;47.982;12.238;2024-01-27T07:53:39;5.90;;;2.53;;
6997;SDS011;3539;47.982;12.238;2024-01-27T07:56:08;8.87;;;3.50;;
6997;SDS011;3539;47.982;12.238;2024-01-27T07:58:35;7.33;;;2.70;;
6997;SDS011;3539;47.982;12.238;2024-01-27T08:01:02;5.10;;;2.13;;
6997;SDS011;3539;47.982;12.238;2024-01-27T08:03:29;5.23;;;3.30;;
6997;SDS011;3539;47.982;12.238;2024-01-27T08:05:56;5.03;;;2.27;;
6997;SDS011;3539;47.982;12.238;2024-01-27T08:08:23;7.33;;;3.47;;
6997;SDS011;3539;47.982;12.238;2024-01-27T08:10:50;3.60;;;2.50;;
6997;SDS011;3539;47.982;12.238;2024-01-27T08:13:18;12.70;;;8.07;;
6997;SDS011;3539;47.982;12.238;2024-01-27T08:15:45;18.93;;;12.00;;
6997;SDS011;3539;47.982;12.238;2024-01-27T08:18:12;16.83;;;12.20;;
6997;SDS011;3539;47.982;12.238;2024-01-27T08:20:39;12.43;;;6.53;;
6997;SDS011;3539;47.982;12.238;2024-01-27T08:23:06;11.43;;;7.23;;
6997;SDS011;3539;47.982;12.238;2024-01-27T08:25:33;14.80;;;9.13;;
6997;SDS011;3539;47.982;12.238;2024-01-27T08:28:00;47.83;;;36.63;;
6997;SDS011;3539;47.982;12.238;2024-01-27T08:30:28;25.50;;;19.97;;
6997;SDS011;3539;47.982;12.238;2024-01-27T08:32:55;14.57;;;10.20;;
6997;SDS011;3539;47.982;12.238;2024-01-27T08:35:22;7.03;;;3.70;;
6997;SDS011;3539;47.982;12.238;2024-01-27T08:37:49;10.47;;;3.00;;
6997;SDS011;3539;47.982;12.238;2024-01-27T08:40:16;5.07;;;2.83;;
6997;SDS011;3539;47.982;12.238;2024-01-27T08:42:43;3.80;;;2.60;;
6997;SDS011;3539;47.982;12.238;2024-01-27T08:45:10;5.67;;;3.20;;
6997;SDS011;3539;47.982;12.238;2024-01-27T08:47:38;8.20;;;3.03;;
6997;SDS011;3539;47.982;12.238;2024-01-27T08:50:06;6.23;;;3.37;;
6997;SDS011;3539;47.982;12.238;2024-01-27T08:52:33;6.17;;;3.30;;
6997;SDS011;3539;47.982;12.238;2024-01-27T08:55:00;8.33;;;2.20;;
6997;SDS011;3539;47.982;12.238;2024-01-27T08:57:27;3.27;;;2.10;;
6997;SDS011;3539;47.982;12.238;2024-01-27T08:59:54;4.23;;;2.10;;
6997;SDS011;3539;47.982;12.238;2024-01-27T09:02:21;10.80;;;2.97;;
6997;SDS011;3539;47.982;12.238;2024-01-27T09:04:50;10.37;;;2.90;;
6997;SDS011;3539;47.982;12.238;2024-01-27T09:07:16;6.83;;;2.53;;
6997;SDS011;3539;47.982;12.238;2024-01-27T09:09:43;7.20;;;3.53;;
6997;SDS011;3539;47.982;12.238;2024-01-27T09:12:10;7.23;;;3.97;;
6997;SDS011;3539;47.982;12.238;2024-01-27T09:14:37;7.23;;;3.63;;
6997;SDS011;3539;47.982;12.238;2024-01-27T09:17:04;5.57;;;2.63;;
6997;SDS011;3539;47.982;12.238;2024-01-27T09:19:31;6.83;;;3.73;;
6997;SDS011;3539;47.982;12.238;2024-01-27T09:21:59;5.57;;;3.43;;
6997;SDS011;3539;47.982;12.238;2024-01-27T09:24:26;7.73;;;3.70;;
6997;SDS011;3539;47.982;12.238;2024-01-27T09:26:53;5.53;;;2.63;;
6997;SDS011;3539;47.982;12.238;2024-01-27T09:29:23;7.47;;;3.90;;
6997;SDS011;3539;47.982;12.238;2024-01-27T09:31:50;5.37;;;3.23;;
6997;SDS011;3539;47.982;12.238;2024-01-27T09:34:17;3.03;;;2.23;;
6997;SDS011;3539;47.982;12.238;2024-01-27T09:36:44;3.57;;;2.30;;
6997;SDS011;3539;47.982;12.238;2024-01-27T09:39:12;5.63;;;3.20;;
6997;SDS011;3539;47.982;12.238;2024-01-27T09:41:39;5.40;;;3.30;;
6997;SDS011;3539;47.982;12.238;2024-01-27T09:44:06;6.17;;;3.37;;
6997;SDS011;3539;47.982;12.238;2024-01-27T09:46:33;7.47;;;3.83;;
6997;SDS011;3539;47.982;12.238;2024-01-27T09:49:00;6.53;;;3.73;;
6997;SDS011;3539;47.982;12.238;2024-01-27T09:51:29;7.10;;;3.73;;
6997;SDS011;3539;47.982;12.238;2024-01-27T09:53:56;7.03;;;3.60;;
6997;SDS011;3539;47.982;12.238;2024-01-27T09:56:24;4.90;;;3.20;;
6997;SDS011;3539;47.982;12.238;2024-01-27T09:58:51;6.63;;;3.13;;
6997;SDS011;3539;47.982;12.238;2024-01-27T10:01:20;5.50;;;3.80;;
6997;SDS011;3539;47.982;12.238;2024-01-27T10:03:48;6.83;;;3.90;;
6997;SDS011;3539;47.982;12.238;2024-01-27T10:06:14;8.17;;;3.50;;
6997;SDS011;3539;47.982;12.238;2024-01-27T10:08:42;7.73;;;3.97;;
6997;SDS011;3539;47.982;12.238;2024-01-27T10:11:10;5.47;;;2.90;;
6997;SDS011;3539;47.982;12.238;2024-01-27T10:13:39;6.80;;;3.60;;
6997;SDS011;3539;47.982;12.238;2024-01-27T10:16:06;9.53;;;3.93;;
6997;SDS011;3539;47.982;12.238;2024-01-27T10:18:35;5.10;;;3.53;;
6997;SDS011;3539;47.982;12.238;2024-01-27T10:21:11;6.20;;;3.45;;
6997;SDS011;3539;47.982;12.238;2024-01-27T10:23:38;9.13;;;3.53;;
6997;SDS011;3539;47.982;12.238;2024-01-27T10:26:08;6.30;;;3.70;;
6997;SDS011;3539;47.982;12.238;2024-01-27T10:28:35;7.13;;;3.70;;
6997;SDS011;3539;47.982;12.238;2024-01-27T10:31:09;6.10;;;3.30;;
6997;SDS011;3539;47.982;12.238;2024-01-27T10:33:35;7.27;;;3.20;;
6997;SDS011;3539;47.982;12.238;2024-01-27T10:36:02;7.03;;;3.47;;
6997;SDS011;3539;47.982;12.238;2024-01-27T10:38:36;4.90;;;3.40;;
6997;SDS011;3539;47.982;12.238;2024-01-27T10:41:04;6.23;;;3.57;;
6997;SDS011;3539;47.982;12.238;2024-01-27T10:43:35;4.93;;;3.10;;
6997;SDS011;3539;47.982;12.238;2024-01-27T10:46:02;7.10;;;3.00;;
6997;SDS011;3539;47.982;12.238;2024-01-27T10:48:33;7.23;;;3.77;;
6997;SDS011;3539;47.982;12.238;2024-01-27T10:51:01;6.70;;;3.80;;
6997;SDS011;3539;47.982;12.238;2024-01-27T10:53:30;6.37;;;3.87;;
6997;SDS011;3539;47.982;12.238;2024-01-27T10:56:00;6.87;;;3.17;;
6997;SDS011;3539;47.982;12.238;2024-01-27T10:58:28;7.93;;;3.67;;
6997;SDS011;3539;47.982;12.238;2024-01-27T11:00:57;6.53;;;3.07;;
6997;SDS011;3539;47.982;12.238;2024-01-27T11:03:24;6.80;;;3.20;;
6997;SDS011;3539;47.982;12.238;2024-01-27T11:05:53;6.30;;;3.10;;
6997;SDS011;3539;47.982;12.238;2024-01-27T11:08:21;8.23;;;3.40;;
6997;SDS011;3539;47.982;12.238;2024-01-27T11:10:53;7.63;;;3.23;;
6997;SDS011;3539;47.982;12.238;2024-01-27T11:13:19;5.63;;;3.60;;
6997;SDS011;3539;47.982;12.238;2024-01-27T11:15:50;7.50;;;3.13;;
6997;SDS011;3539;47.982;12.238;2024-01-27T11:18:17;5.20;;;3.13;;
6997;SDS011;3539;47.982;12.238;2024-01-27T11:20:45;7.43;;;3.03;;
6997;SDS011;3539;47.982;12.238;2024-01-27T11:23:13;7.03;;;3.47;;
6997;SDS011;3539;47.982;12.238;2024-01-27T11:25:40;6.13;;;3.03;;
6997;SDS011;3539;47.982;12.238;2024-01-27T11:28:11;8.17;;;3.30;;
6997;SDS011;3539;47.982;12.238;2024-01-27T11:30:39;8.20;;;3.20;;
6997;SDS011;3539;47.982;12.238;2024-01-27T11:33:06;5.93;;;2.83;;
6997;SDS011;3539;47.982;12.238;2024-01-27T11:35:33;5.37;;;2.57;;
6997;SDS011;3539;47.982;12.238;2024-01-27T11:38:00;6.23;;;2.90;;
6997;SDS011;3539;47.982;12.238;2024-01-27T11:40:28;7.70;;;3.07;;
6997;SDS011;3539;47.982;12.238;2024-01-27T11:42:55;6.20;;;2.77;;
6997;SDS011;3539;47.982;12.238;2024-01-27T11:45:22;7.33;;;3.37;;
6997;SDS011;3539;47.982;12.238;2024-01-27T11:47:49;5.40;;;3.20;;
6997;SDS011;3539;47.982;12.238;2024-01-27T11:50:16;5.63;;;3.10;;
6997;SDS011;3539;47.982;12.238;2024-01-27T11:52:43;6.50;;;3.00;;
6997;SDS011;3539;47.982;12.238;2024-01-27T11:55:10;7.17;;;3.03;;
6997;SDS011;3539;47.982;12.238;2024-01-27T11:57:38;4.67;;;2.67;;
6997;SDS011;3539;47.982;12.238;2024-01-27T12:00:06;4.70;;;2.50;;
6997;SDS011;3539;47.982;12.238;2024-01-27T12:02:34;4.50;;;2.20;;
6997;SDS011;3539;47.982;12.238;2024-01-27T12:05:01;4.37;;;2.23;;
6997;SDS011;3539;47.982;12.238;2024-01-27T12:07:28;5.30;;;1.97;;
6997;SDS011;3539;47.982;12.238;2024-01-27T12:09:55;5.60;;;2.23;;
6997;SDS011;3539;47.982;12.238;2024-01-27T12:12:21;3.67;;;2.10;;
6997;SDS011;3539;47.982;12.238;2024-01-27T12:14:51;5.30;;;2.23;;
6997;SDS011;3539;47.982;12.238;2024-01-27T12:17:18;4.97;;;2.00;;
6997;SDS011;3539;47.982;12.238;2024-01-27T12:19:45;6.57;;;2.17;;
6997;SDS011;3539;47.982;12.238;2024-01-27T12:22:20;4.97;;;2.13;;
6997;SDS011;3539;47.982;12.238;2024-01-27T12:24:48;4.50;;;2.20;;
6997;SDS011;3539;47.982;12.238;2024-01-27T12:27:15;4.40;;;2.00;;
6997;SDS011;3539;47.982;12.238;2024-01-27T12:29:42;5.27;;;2.10;;
6997;SDS011;3539;47.982;12.238;2024-01-27T12:32:09;4.43;;;1.93;;
6997;SDS011;3539;47.982;12.238;2024-01-27T12:34:39;4.13;;;2.20;;
6997;SDS011;3539;47.982;12.238;2024-01-27T12:37:07;3.50;;;1.97;;
6997;SDS011;3539;47.982;12.238;2024-01-27T12:39:34;4.23;;;1.90;;
6997;SDS011;3539;47.982;12.238;2024-01-27T12:42:01;6.03;;;2.47;;
6997;SDS011;3539;47.982;12.238;2024-01-27T12:44:27;4.70;;;2.20;;
6997;SDS011;3539;47.982;12.238;2024-01-27T12:46:54;6.53;;;2.30;;
6997;SDS011;3539;47.982;12.238;2024-01-27T12:49:23;5.00;;;2.03;;
6997;SDS011;3539;47.982;12.238;2024-01-27T12:51:50;4.30;;;2.13;;
6997;SDS011;3539;47.982;12.238;2024-01-27T12:54:17;6.07;;;1.90;;
6997;SDS011;3539;47.982;12.238;2024-01-27T12:56:44;6.20;;;1.80;;
6997;SDS011;3539;47.982;12.238;2024-01-27T12:59:11;4.13;;;2.23;;
6997;SDS011;3539;47.982;12.238;2024-01-27T13:01:39;3.67;;;2.10;;
6997;SDS011;3539;47.982;12.238;2024-01-27T13:04:06;5.23;;;2.10;;
6997;SDS011;3539;47.982;12.238;2024-01-27T13:06:34;3.40;;;1.70;;
6997;SDS011;3539;47.982;12.238;2024-01-27T13:09:01;2.80;;;1.80;;
6997;SDS011;3539;47.982;12.238;2024-01-27T13:11:28;4.63;;;2.00;;
6997;SDS011;3539;47.982;12.238;2024-01-27T13:13:54;4.77;;;1.87;;
6997;SDS011;3539;47.982;12.238;2024-01-27T13:16:21;3.63;;;2.00;;
6997;SDS011;3539;47.982;12.238;2024-01-27T13:18:48;2.97;;;1.83;;
6997;SDS011;3539;47.982;12.238;2024-01-27T13:21:15;4.93;;;1.70;;
6997;SDS011;3539;47.982;12.238;2024-01-27T13:23:43;4.53;;;1.97;;
6997;SDS011;3539;47.982;12.238;2024-01-27T13:26:10;3.93;;;1.90;;
6997;SDS011;3539;47.982;12.238;2024-01-27T13:28:36;4.10;;;1.73;;
6997;SDS011;3539;47.982;12.238;2024-01-27T13:31:03;3.97;;;1.83;;
6997;SDS011;3539;47.982;12.238;2024-01-27T13:33:31;2.97;;;1.87;;
6997;SDS011;3539;47.982;12.238;2024-01-27T13:35:57;5.43;;;2.17;;
6997;SDS011;3539;47.982;12.238;2024-01-27T13:38:24;4.37;;;1.90;;
6997;SDS011;3539;47.982;12.238;2024-01-27T13:40:53;4.70;;;1.83;;
6997;SDS011;3539;47.982;12.238;2024-01-27T13:43:19;3.17;;;1.80;;
6997;SDS011;3539;47.982;12.238;2024-01-27T13:45:46;4.77;;;2.00;;
6997;SDS011;3539;47.982;12.238;2024-01-27T13:48:13;4.57;;;2.07;;
6997;SDS011;3539;47.982;12.238;2024-01-27T13:50:40;6.67;;;2.27;;
6997;SDS011;3539;47.982;12.238;2024-01-27T13:53:07;6.77;;;4.07;;
6997;SDS011;3539;47.982;12.238;2024-01-27T13:55:34;25.30;;;14.80;;
6997;SDS011;3539;47.982;12.238;2024-01-27T13:58:03;4.33;;;2.40;;
6997;SDS011;3539;47.982;12.238;2024-01-27T14:00:30;5.07;;;2.07;;
6997;SDS011;3539;47.982;12.238;2024-01-27T14:02:58;4.73;;;1.90;;
6997;SDS011;3539;47.982;12.238;2024-01-27T14:05:25;4.77;;;2.00;;
6997;SDS011;3539;47.982;12.238;2024-01-27T14:07:52;4.10;;;2.00;;
6997;SDS011;3539;47.982;12.238;2024-01-27T14:10:18;4.43;;;1.87;;
6997;SDS011;3539;47.982;12.238;2024-01-27T14:12:45;3.97;;;1.60;;
6997;SDS011;3539;47.982;12.238;2024-01-27T14:15:13;3.73;;;1.67;;
6997;SDS011;3539;47.982;12.238;2024-01-27T14:17:42;4.20;;;1.30;;
6997;SDS011;3539;47.982;12.238;2024-01-27T14:20:11;2.97;;;1.57;;
6997;SDS011;3539;47.982;12.238;2024-01-27T14:22:38;3.97;;;1.63;;
6997;SDS011;3539;47.982;12.238;2024-01-27T14:25:05;6.50;;;2.50;;
6997;SDS011;3539;47.982;12.238;2024-01-27T14:27:32;4.30;;;1.77;;
6997;SDS011;3539;47.982;12.238;2024-01-27T14:30:00;6.07;;;2.70;;
6997;SDS011;3539;47.982;12.238;2024-01-27T14:32:28;5.37;;;1.77;;
6997;SDS011;3539;47.982;12.238;2024-01-27T14:34:55;4.83;;;1.70;;
6997;SDS011;3539;47.982;12.238;2024-01-27T14:37:22;3.00;;;1.70;;
6997;SDS011;3539;47.982;12.238;2024-01-27T14:39:48;4.70;;;1.90;;
6997;SDS011;3539;47.982;12.238;2024-01-27T14:42:15;5.03;;;1.80;;
6997;SDS011;3539;47.982;12.238;2024-01-27T14:44:43;3.83;;;2.00;;
6997;SDS011;3539;47.982;12.238;2024-01-27T14:47:11;3.67;;;1.57;;
6997;SDS011;3539;47.982;12.238;2024-01-27T14:49:39;3.57;;;1.80;;
6997;SDS011;3539;47.982;12.238;2024-01-27T14:52:08;3.57;;;2.10;;
6997;SDS011;3539;47.982;12.238;2024-01-27T14:54:36;4.47;;;2.10;;
6997;SDS011;3539;47.982;12.238;2024-01-27T14:57:03;4.27;;;2.00;;
6997;SDS011;3539;47.982;12.238;2024-01-27T14:59:34;3.17;;;1.73;;
6997;SDS011;3539;47.982;12.238;2024-01-27T15:02:00;5.17;;;2.20;;